Time;durP1;ratioP1;P1;durP2;ratioP2;P2;SDS_P1;SDS_P2;PMS_P1;PMS_P2;Temp;Humidity;BMP_temperature;BMP_pressure;BME280_temperature;BME280_humidity;BME280_pressure;Samples;Min_cycle;Max_cycle;Signal;HPM_P1;HPM_P2
2022/03/30 00:00:18;;;;;;;;;;;4.00;99.90;;;;;;5010249;28;19913;-52
2022/03/30 00:02:44;;;;;;;;;;;4.00;99.90;;;;;;5009614;28;19917;-53
2022/03/30 00:05:10;;;;;;;;;;;4.00;99.90;;;;;;5020197;23;19933;-51
2022/03/30 00:07:36;;;;;;;;;;;4.00;99.90;;;;;;5007910;28;19922;-48
2022/03/30 00:10:03;;;;;;;;;;;3.90;99.90;;;;;;5007446;28;19913;-52
2022/03/30 00:12:29;;;;;;;;;;;4.00;99.90;;;;;;5006411;28;19920;-54
2022/03/30 00:14:55;;;;;;;;;;;4.00;99.90;;;;;;5006983;28;19925;-50
2022/03/30 00:17:21;;;;;;;;;;;4.00;99.90;;;;;;5007080;28;19956;-52
2022/03/30 00:19:46;;;;;;;;;;;4.00;99.90;;;;;;5008063;28;19918;-55
2022/03/30 00:22:12;;;;;;;;;;;3.90;99.90;;;;;;5007482;28;19974;-51
2022/03/30 00:24:38;;;;;;;;;;;4.00;99.90;;;;;;5006433;28;20004;-52
2022/03/30 00:27:05;;;;;;;;;;;3.90;99.90;;;;;;5006177;28;19924;-51
2022/03/30 00:29:31;;;;;;;;;;;3.90;99.90;;;;;;5007545;28;19971;-54
2022/03/30 00:31:56;;;;;;;;;;;3.90;99.90;;;;;;5005585;28;19925;-52
2022/03/30 00:34:22;;;;;;;;;;;3.90;99.90;;;;;;5007512;28;19979;-51
2022/03/30 00:36:47;;;;;;;;;;;3.90;99.90;;;;;;5008063;28;19963;-52
2022/03/30 00:39:13;;;;;;;;;;;3.90;99.90;;;;;;5007061;28;20275;-53
2022/03/30 00:41:38;;;;;;;;;;;3.90;99.90;;;;;;5007807;28;20166;-53
2022/03/30 00:44:11;;;;;;;;;;;3.80;99.90;;;;;;5006211;28;19929;-52
2022/03/30 00:46:37;;;;;;;;;;;3.80;99.90;;;;;;5006820;28;19919;-52
2022/03/30 00:49:04;;;;;;;;;;;3.80;99.90;;;;;;5006934;28;20377;-52
2022/03/30 00:51:29;;;;;;;;;;;3.80;99.90;;;;;;5006938;28;19917;-53
2022/03/30 00:53:55;;;;;;;;;;;3.80;99.90;;;;;;5006870;28;20401;-51
2022/03/30 00:56:21;;;;;;;;;;;3.80;99.90;;;;;;5008006;28;19953;-51
2022/03/30 00:58:46;;;;;;;;;;;3.70;99.90;;;;;;5005856;28;19918;-50
2022/03/30 01:01:12;;;;;;;;;;;3.70;99.90;;;;;;5005832;28;20374;-52
2022/03/30 01:03:37;;;;;;;;;;;3.70;99.90;;;;;;5004051;28;19913;-51
2022/03/30 01:06:03;;;;;;;;;;;3.70;99.90;;;;;;5007948;28;19980;-49
2022/03/30 01:08:28;;;;;;;;;;;3.60;99.90;;;;;;5006238;28;20012;-50
2022/03/30 01:10:54;;;;;;;;;;;3.60;99.90;;;;;;5006761;28;19917;-53
2022/03/30 01:13:19;;;;;;;;;;;3.60;99.90;;;;;;5005409;28;19921;-52
2022/03/30 01:15:45;;;;;;;;;;;3.60;99.90;;;;;;5005830;28;19944;-54
2022/03/30 01:18:10;;;;;;;;;;;3.60;99.90;;;;;;5002459;28;20012;-53
2022/03/30 01:20:37;;;;;;;;;;;3.50;99.90;;;;;;5005275;28;19988;-53
2022/03/30 01:23:03;;;;;;;;;;;3.50;99.90;;;;;;5003947;28;19913;-49
2022/03/30 01:25:28;;;;;;;;;;;3.50;99.90;;;;;;5006750;28;19913;-50
2022/03/30 01:27:53;;;;;;;;;;;3.50;99.90;;;;;;5005476;28;20091;-52
2022/03/30 01:33:04;;;;;;;;;;;3.40;99.90;;;;;;5001197;28;21045;-55
2022/03/30 01:35:30;;;;;;;;;;;3.40;99.90;;;;;;5003998;28;20019;-51
2022/03/30 01:37:55;;;;;;;;;;;3.40;99.90;;;;;;5005322;28;20000;-49
2022/03/30 01:40:21;;;;;;;;;;;3.40;99.90;;;;;;5006018;28;19975;-54
2022/03/30 01:42:47;;;;;;;;;;;3.40;99.90;;;;;;5005099;28;19967;-49
2022/03/30 01:45:15;;;;;;;;;;;3.30;99.90;;;;;;5005819;28;20485;-53
2022/03/30 01:47:41;;;;;;;;;;;3.30;99.90;;;;;;5006418;28;19925;-50
2022/03/30 01:50:08;;;;;;;;;;;3.20;99.90;;;;;;5004135;28;19914;-50
2022/03/30 01:52:33;;;;;;;;;;;3.20;99.90;;;;;;5005818;28;19924;-54
2022/03/30 01:54:59;;;;;;;;;;;3.20;99.90;;;;;;5004835;28;19921;-52
2022/03/30 01:57:24;;;;;;;;;;;3.10;99.90;;;;;;5006230;28;19914;-53
2022/03/30 01:59:50;;;;;;;;;;;3.10;99.90;;;;;;5005499;28;20028;-52
2022/03/30 02:02:16;;;;;;;;;;;3.00;99.90;;;;;;5003701;28;19913;-52
2022/03/30 02:04:41;;;;;;;;;;;3.00;99.90;;;;;;5004449;28;19921;-52
2022/03/30 02:07:10;;;;;;;;;;;3.00;99.90;;;;;;5003858;28;20289;-52
2022/03/30 02:09:36;;;;;;;;;;;2.90;99.90;;;;;;5006032;28;20274;-53
2022/03/30 02:12:02;;;;;;;;;;;2.80;99.90;;;;;;5005672;28;19921;-54
2022/03/30 02:14:27;;;;;;;;;;;2.70;99.90;;;;;;5005452;28;19921;-50
2022/03/30 02:16:53;;;;;;;;;;;2.70;99.90;;;;;;5003515;28;20294;-48
2022/03/30 02:19:18;;;;;;;;;;;2.70;99.90;;;;;;5005128;28;19932;-49
2022/03/30 02:21:44;;;;;;;;;;;2.60;99.90;;;;;;5004930;28;20003;-54
2022/03/30 02:24:09;;;;;;;;;;;2.60;99.90;;;;;;5004471;28;19957;-48
2022/03/30 02:26:35;;;;;;;;;;;2.60;99.90;;;;;;5006450;28;19917;-54
2022/03/30 02:29:00;;;;;;;;;;;2.50;99.90;;;;;;5005165;28;19983;-49
2022/03/30 02:31:26;;;;;;;;;;;2.50;99.90;;;;;;5003440;28;20409;-49
2022/03/30 02:33:51;;;;;;;;;;;2.50;99.90;;;;;;5004695;28;19924;-49
2022/03/30 02:36:17;;;;;;;;;;;2.50;99.90;;;;;;5004201;28;20251;-52
2022/03/30 02:38:43;;;;;;;;;;;2.50;99.90;;;;;;5004816;28;19920;-52
2022/03/30 02:41:09;;;;;;;;;;;2.50;99.90;;;;;;5003910;28;19917;-53
2022/03/30 02:43:35;;;;;;;;;;;2.60;99.90;;;;;;5006234;28;20465;-50
2022/03/30 02:46:00;;;;;;;;;;;2.70;99.90;;;;;;5002252;28;20020;-51
2022/03/30 02:48:29;;;;;;;;;;;2.70;99.90;;;;;;5006380;28;19918;-49
2022/03/30 02:50:59;;;;;;;;;;;2.60;99.90;;;;;;5004935;28;19968;-49
2022/03/30 02:53:25;;;;;;;;;;;2.60;99.90;;;;;;5006105;28;19952;-49
2022/03/30 02:55:50;;;;;;;;;;;2.60;99.90;;;;;;5001920;28;20339;-53
2022/03/30 02:58:16;;;;;;;;;;;2.60;99.90;;;;;;5005663;28;19909;-52
2022/03/30 03:00:42;;;;;;;;;;;2.50;99.90;;;;;;4999449;28;20031;-48
2022/03/30 03:03:08;;;;;;;;;;;2.50;99.90;;;;;;5004753;28;19913;-51
2022/03/30 03:05:34;;;;;;;;;;;2.40;99.90;;;;;;5004444;28;20106;-52
2022/03/30 03:08:00;;;;;;;;;;;2.40;99.90;;;;;;5006628;28;19968;-49
2022/03/30 03:10:26;;;;;;;;;;;2.40;99.90;;;;;;5003954;28;19917;-52
2022/03/30 03:12:52;;;;;;;;;;;2.30;99.90;;;;;;5003640;28;19940;-49
2022/03/30 03:15:18;;;;;;;;;;;2.30;99.90;;;;;;5001777;28;19918;-52
2022/03/30 03:17:43;;;;;;;;;;;2.30;99.90;;;;;;5006278;28;20355;-52
2022/03/30 03:20:09;;;;;;;;;;;2.40;99.90;;;;;;5003572;28;19913;-49
2022/03/30 03:22:34;;;;;;;;;;;2.30;99.90;;;;;;5004624;28;19967;-53
2022/03/30 03:25:00;;;;;;;;;;;2.30;99.90;;;;;;5003682;28;19987;-51
2022/03/30 03:27:25;;;;;;;;;;;2.30;99.90;;;;;;5004828;28;20318;-53
2022/03/30 03:29:51;;;;;;;;;;;2.20;99.90;;;;;;5003519;28;19922;-52
2022/03/30 03:32:16;;;;;;;;;;;2.20;99.90;;;;;;5004025;28;20206;-49
2022/03/30 03:34:41;;;;;;;;;;;2.20;99.90;;;;;;5003532;28;19928;-51
2022/03/30 03:37:08;;;;;;;;;;;2.10;99.90;;;;;;5004814;28;19917;-55
2022/03/30 03:39:33;;;;;;;;;;;2.10;99.90;;;;;;5004799;28;20173;-50
2022/03/30 03:41:59;;;;;;;;;;;2.20;99.90;;;;;;5004411;28;20298;-50
2022/03/30 03:44:24;;;;;;;;;;;2.20;99.90;;;;;;5002675;28;19991;-49
2022/03/30 03:46:49;;;;;;;;;;;2.20;99.90;;;;;;5002916;28;19953;-49
2022/03/30 03:49:15;;;;;;;;;;;2.20;99.90;;;;;;5004558;28;19957;-54
2022/03/30 03:51:40;;;;;;;;;;;2.10;99.90;;;;;;5004839;28;20332;-49
2022/03/30 03:54:06;;;;;;;;;;;2.10;99.90;;;;;;5003996;28;19921;-50
2022/03/30 03:56:31;;;;;;;;;;;2.10;99.90;;;;;;5005388;28;19929;-53
2022/03/30 03:58:57;;;;;;;;;;;2.10;99.90;;;;;;5006553;28;19917;-52
2022/03/30 04:01:22;;;;;;;;;;;2.10;99.90;;;;;;5003652;28;19914;-52
2022/03/30 04:03:48;;;;;;;;;;;2.10;99.90;;;;;;5005989;28;20064;-54
2022/03/30 04:06:13;;;;;;;;;;;2.10;99.90;;;;;;5003273;28;19918;-53
2022/03/30 04:08:39;;;;;;;;;;;2.10;99.90;;;;;;5005200;28;19924;-52
2022/03/30 04:11:04;;;;;;;;;;;2.00;99.90;;;;;;5003984;28;19914;-53
2022/03/30 04:13:30;;;;;;;;;;;2.00;99.90;;;;;;5008607;28;19964;-53
2022/03/30 04:15:56;;;;;;;;;;;2.00;99.90;;;;;;5007926;28;20016;-50
2022/03/30 04:18:23;;;;;;;;;;;2.00;99.90;;;;;;5007854;28;20461;-54
2022/03/30 04:20:48;;;;;;;;;;;2.00;99.90;;;;;;5003262;28;19956;-52
2022/03/30 04:23:14;;;;;;;;;;;2.00;99.90;;;;;;5007102;28;20278;-52
2022/03/30 04:25:39;;;;;;;;;;;2.00;99.90;;;;;;5003046;28;20016;-53
2022/03/30 04:28:05;;;;;;;;;;;2.00;99.90;;;;;;5005730;28;19925;-50
2022/03/30 04:30:30;;;;;;;;;;;2.10;99.90;;;;;;5007237;28;20844;-52
2022/03/30 04:32:56;;;;;;;;;;;2.10;99.90;;;;;;5004964;28;20340;-54
2022/03/30 04:35:27;;;;;;;;;;;2.10;99.90;;;;;;5007981;28;19931;-49
2022/03/30 04:37:54;;;;;;;;;;;2.20;99.90;;;;;;4999553;28;20015;-53
2022/03/30 04:40:20;;;;;;;;;;;2.10;99.90;;;;;;5006815;28;19917;-48
2022/03/30 04:42:46;;;;;;;;;;;2.20;99.90;;;;;;5004758;28;19913;-51
2022/03/30 04:45:11;;;;;;;;;;;2.30;99.90;;;;;;5006135;28;19920;-52
2022/03/30 04:47:37;;;;;;;;;;;2.30;99.90;;;;;;5006032;28;19960;-53
2022/03/30 04:50:03;;;;;;;;;;;2.30;99.90;;;;;;5003105;28;20008;-52
2022/03/30 04:52:29;;;;;;;;;;;2.40;99.90;;;;;;5001007;28;19921;-51
2022/03/30 04:54:54;;;;;;;;;;;2.40;99.90;;;;;;5002964;28;20123;-50
2022/03/30 04:57:20;;;;;;;;;;;2.40;99.90;;;;;;5004239;28;19917;-50
2022/03/30 04:59:46;;;;;;;;;;;2.40;99.90;;;;;;5002629;28;19914;-51
2022/03/30 05:02:12;;;;;;;;;;;2.50;99.90;;;;;;5004062;28;19944;-53
2022/03/30 05:04:37;;;;;;;;;;;2.50;99.90;;;;;;5005871;28;20321;-51
2022/03/30 05:07:02;;;;;;;;;;;2.50;99.90;;;;;;5006964;28;19924;-48
2022/03/30 05:09:28;;;;;;;;;;;2.50;99.90;;;;;;5003472;28;19919;-50
2022/03/30 05:11:53;;;;;;;;;;;2.60;99.90;;;;;;5003387;28;20344;-48
2022/03/30 05:14:19;;;;;;;;;;;2.60;99.90;;;;;;5002802;28;20441;-53
2022/03/30 05:16:44;;;;;;;;;;;2.60;99.90;;;;;;5005347;28;19924;-51
2022/03/30 05:19:10;;;;;;;;;;;2.70;99.90;;;;;;5001644;28;19921;-51
2022/03/30 05:21:35;;;;;;;;;;;2.80;99.90;;;;;;5003702;28;19913;-48
2022/03/30 05:24:01;;;;;;;;;;;2.90;99.90;;;;;;5002956;28;19996;-51
2022/03/30 05:26:28;;;;;;;;;;;2.90;99.90;;;;;;5003123;28;20146;-48
2022/03/30 05:28:54;;;;;;;;;;;2.90;99.90;;;;;;5003629;28;20044;-54
2022/03/30 05:31:19;;;;;;;;;;;2.90;99.90;;;;;;5004224;28;20046;-50
2022/03/30 05:33:45;;;;;;;;;;;3.00;99.90;;;;;;4997711;28;19992;-52
2022/03/30 05:36:11;;;;;;;;;;;3.10;99.90;;;;;;5003524;28;19945;-52
2022/03/30 05:38:37;;;;;;;;;;;3.10;99.90;;;;;;5004503;28;19922;-52
2022/03/30 05:41:02;;;;;;;;;;;3.20;99.90;;;;;;5007094;28;19921;-52
2022/03/30 05:43:28;;;;;;;;;;;3.20;99.90;;;;;;5005818;28;19917;-52
2022/03/30 05:45:53;;;;;;;;;;;3.20;99.90;;;;;;5007573;28;19909;-52
2022/03/30 05:48:19;;;;;;;;;;;3.20;99.90;;;;;;5006429;28;20355;-51
2022/03/30 05:50:45;;;;;;;;;;;3.20;99.90;;;;;;5006927;28;19921;-52
2022/03/30 05:53:11;;;;;;;;;;;3.20;99.90;;;;;;5006765;28;19956;-54
2022/03/30 05:55:36;;;;;;;;;;;3.20;99.90;;;;;;5007150;28;20461;-54
2022/03/30 05:58:03;;;;;;;;;;;3.10;99.90;;;;;;5006565;28;20044;-52
2022/03/30 06:00:29;;;;;;;;;;;3.10;99.90;;;;;;5006038;28;19965;-51
2022/03/30 06:02:54;;;;;;;;;;;3.20;99.90;;;;;;5007250;28;19953;-51
2022/03/30 06:05:20;;;;;;;;;;;3.20;99.90;;;;;;5007137;28;19922;-51
2022/03/30 06:07:45;;;;;;;;;;;3.30;99.90;;;;;;5006499;28;19910;-52
2022/03/30 06:10:11;;;;;;;;;;;3.40;99.90;;;;;;5007435;28;20016;-52
2022/03/30 06:12:36;;;;;;;;;;;3.50;99.90;;;;;;5007240;28;19918;-51
2022/03/30 06:15:02;;;;;;;;;;;3.50;99.90;;;;;;5006346;28;20000;-51
2022/03/30 06:17:28;;;;;;;;;;;3.50;99.90;;;;;;5004459;28;20044;-53
2022/03/30 06:19:54;;;;;;;;;;;3.60;99.90;;;;;;5005253;28;19918;-51
2022/03/30 06:22:20;;;;;;;;;;;3.60;99.90;;;;;;5006023;28;20425;-52
2022/03/30 06:24:45;;;;;;;;;;;3.70;99.90;;;;;;5005730;28;19917;-50
2022/03/30 06:27:11;;;;;;;;;;;3.80;99.90;;;;;;4998368;28;19921;-52
2022/03/30 06:29:38;;;;;;;;;;;3.80;99.90;;;;;;5003296;28;20596;-53
2022/03/30 06:32:04;;;;;;;;;;;4.00;99.90;;;;;;4998260;28;20016;-53
2022/03/30 06:34:29;;;;;;;;;;;4.20;99.90;;;;;;5005740;28;20008;-50
2022/03/30 06:36:54;;;;;;;;;;;4.40;99.90;;;;;;5003673;28;20370;-52
2022/03/30 06:39:20;;;;;;;;;;;4.50;99.90;;;;;;5005163;28;20363;-53
2022/03/30 06:41:45;;;;;;;;;;;4.60;99.90;;;;;;5001602;28;20569;-53
2022/03/30 06:44:11;;;;;;;;;;;4.70;99.90;;;;;;5002909;28;19968;-49
2022/03/30 06:46:38;;;;;;;;;;;4.80;99.90;;;;;;5004852;28;20438;-52
2022/03/30 06:49:04;;;;;;;;;;;4.80;99.90;;;;;;5001416;28;20009;-53
2022/03/30 06:51:30;;;;;;;;;;;4.80;99.90;;;;;;5003850;28;20055;-53
2022/03/30 06:53:55;;;;;;;;;;;4.80;99.90;;;;;;5003800;28;20387;-54
2022/03/30 06:56:21;;;;;;;;;;;4.80;99.90;;;;;;5003884;28;19926;-51
2022/03/30 06:58:47;;;;;;;;;;;4.90;99.90;;;;;;5005446;28;19991;-49
2022/03/30 07:01:14;;;;;;;;;;;5.10;99.90;;;;;;5002069;28;20283;-53
2022/03/30 07:03:40;;;;;;;;;;;5.20;99.90;;;;;;5003950;28;19913;-51
2022/03/30 07:06:05;;;;;;;;;;;5.40;99.90;;;;;;5004151;28;19921;-51
2022/03/30 07:11:15;;;;;;;;;;;5.40;99.90;;;;;;5004231;28;19993;-52
2022/03/30 07:13:40;;;;;;;;;;;5.50;99.90;;;;;;5003418;28;19926;-52
2022/03/30 07:16:06;;;;;;;;;;;5.60;99.90;;;;;;5000747;28;19925;-54
2022/03/30 07:18:31;;;;;;;;;;;5.70;99.90;;;;;;5002478;28;19913;-52
2022/03/30 07:20:57;;;;;;;;;;;5.70;99.90;;;;;;5004825;28;19917;-53
2022/03/30 07:23:23;;;;;;;;;;;5.80;99.50;;;;;;5005110;28;19913;-52
2022/03/30 07:25:49;;;;;;;;;;;5.70;98.50;;;;;;5004157;28;19921;-52
2022/03/30 07:28:16;;;;;;;;;;;5.70;99.10;;;;;;5003766;28;19920;-55
2022/03/30 07:30:43;;;;;;;;;;;5.80;99.00;;;;;;5003641;28;19920;-54
2022/03/30 07:33:08;;;;;;;;;;;5.90;99.40;;;;;;5006535;28;20286;-52
2022/03/30 07:35:34;;;;;;;;;;;6.10;99.20;;;;;;5008643;28;19921;-52
2022/03/30 07:38:00;;;;;;;;;;;6.20;99.10;;;;;;5007711;28;19968;-50
2022/03/30 07:40:27;;;;;;;;;;;6.20;99.00;;;;;;5005517;28;19914;-56
2022/03/30 07:42:54;;;;;;;;;;;6.30;98.80;;;;;;5008546;28;19928;-50
2022/03/30 07:45:19;;;;;;;;;;;6.40;99.10;;;;;;5007046;28;20453;-54
2022/03/30 07:47:45;;;;;;;;;;;6.50;98.10;;;;;;5006037;28;19922;-51
2022/03/30 07:50:11;;;;;;;;;;;6.60;98.90;;;;;;5008026;28;20639;-49
2022/03/30 07:52:37;;;;;;;;;;;6.60;97.40;;;;;;5006259;28;20134;-49
2022/03/30 07:55:04;;;;;;;;;;;6.60;97.30;;;;;;5007179;28;21663;-50
2022/03/30 07:57:29;;;;;;;;;;;6.60;96.70;;;;;;5008526;28;19932;-55
2022/03/30 07:59:58;;;;;;;;;;;6.60;96.30;;;;;;5004646;28;19992;-49
2022/03/30 08:02:24;;;;;;;;;;;6.60;96.70;;;;;;5006728;28;20374;-51
2022/03/30 08:04:50;;;;;;;;;;;6.80;96.70;;;;;;5008642;28;19925;-49
2022/03/30 08:07:16;;;;;;;;;;;7.00;97.00;;;;;;5006437;28;19921;-49
2022/03/30 08:09:42;;;;;;;;;;;7.10;95.80;;;;;;5007157;28;19979;-49
2022/03/30 08:12:08;;;;;;;;;;;7.10;94.30;;;;;;5004796;28;19917;-50
2022/03/30 08:14:34;;;;;;;;;;;7.10;95.60;;;;;;5008173;28;19957;-51
2022/03/30 08:16:59;;;;;;;;;;;7.20;95.60;;;;;;5006492;28;19972;-51
2022/03/30 08:19:25;;;;;;;;;;;7.20;94.30;;;;;;5007409;28;20274;-53
2022/03/30 08:24:35;;;;;;;;;;;7.30;95.20;;;;;;5007106;28;19925;-53
2022/03/30 08:27:00;;;;;;;;;;;7.40;95.20;;;;;;5005114;28;19917;-51
2022/03/30 08:29:26;;;;;;;;;;;7.60;95.30;;;;;;5006429;28;19917;-49
2022/03/30 08:31:52;;;;;;;;;;;7.80;95.20;;;;;;5005246;28;19917;-55
2022/03/30 08:34:19;;;;;;;;;;;8.00;95.10;;;;;;5007036;28;19943;-49
2022/03/30 08:36:44;;;;;;;;;;;8.20;95.00;;;;;;5005797;28;20113;-49
2022/03/30 08:39:13;;;;;;;;;;;8.30;94.10;;;;;;5008840;28;19913;-48
2022/03/30 08:41:43;;;;;;;;;;;8.20;93.10;;;;;;5004093;28;19914;-52
2022/03/30 08:44:09;;;;;;;;;;;8.10;94.30;;;;;;5005275;28;19913;-55
2022/03/30 08:46:36;;;;;;;;;;;8.30;94.30;;;;;;5005600;28;20126;-51
2022/03/30 08:49:02;;;;;;;;;;;8.60;93.90;;;;;;5006623;28;20039;-52
2022/03/30 08:51:27;;;;;;;;;;;8.70;93.60;;;;;;5006221;28;20394;-54
2022/03/30 08:53:53;;;;;;;;;;;8.80;93.40;;;;;;5005312;28;19921;-51
2022/03/30 08:56:19;;;;;;;;;;;8.80;91.20;;;;;;5007267;28;20008;-52
2022/03/30 08:58:45;;;;;;;;;;;8.80;91.80;;;;;;5004750;28;19920;-49
2022/03/30 09:01:11;;;;;;;;;;;8.90;91.80;;;;;;5003410;28;20378;-52
2022/03/30 09:03:54;;;;;;;;;;;8.80;91.20;;;;;;5006253;28;20020;-52
2022/03/30 09:06:48;;;;;;;;;;;8.90;91.50;;;;;;5001518;28;19918;-51
2022/03/30 09:09:15;;;;;;;;;;;9.00;91.50;;;;;;4985930;28;20472;-52
2022/03/30 09:11:40;;;;;;;;;;;9.10;88.90;;;;;;5006493;28;19914;-49
2022/03/30 09:14:07;;;;;;;;;;;9.10;90.40;;;;;;5006210;28;19910;-52
2022/03/30 09:16:37;;;;;;;;;;;9.20;90.70;;;;;;5006154;28;19924;-54
2022/03/30 09:19:08;;;;;;;;;;;9.30;89.90;;;;;;5005585;28;19917;-50
2022/03/30 09:21:41;;;;;;;;;;;9.40;91.00;;;;;;5005474;28;19924;-54
2022/03/30 09:24:06;;;;;;;;;;;9.40;85.30;;;;;;5005722;28;20000;-49
2022/03/30 09:26:32;;;;;;;;;;;9.30;87.50;;;;;;5005852;28;20362;-53
2022/03/30 09:28:58;;;;;;;;;;;9.30;90.30;;;;;;5007365;28;19933;-53
2022/03/30 09:31:25;;;;;;;;;;;9.40;89.20;;;;;;5007613;28;19936;-53
2022/03/30 09:33:53;;;;;;;;;;;9.40;88.60;;;;;;5007163;28;20374;-49
2022/03/30 09:36:29;;;;;;;;;;;9.40;90.50;;;;;;5006001;28;20026;-51
2022/03/30 09:38:54;;;;;;;;;;;9.60;89.50;;;;;;5007377;28;20452;-50
2022/03/30 09:41:20;;;;;;;;;;;9.70;89.20;;;;;;5006569;28;19913;-51
2022/03/30 09:43:45;;;;;;;;;;;9.80;89.80;;;;;;5007242;28;19920;-49
2022/03/30 09:46:11;;;;;;;;;;;9.90;88.30;;;;;;5007111;28;20028;-53
2022/03/30 09:48:39;;;;;;;;;;;10.20;86.90;;;;;;5006785;28;20308;-53
2022/03/30 09:51:06;;;;;;;;;;;10.20;86.60;;;;;;5006932;28;20397;-50
2022/03/30 09:53:33;;;;;;;;;;;10.20;83.10;;;;;;5005304;28;20252;-52
2022/03/30 09:55:59;;;;;;;;;;;10.30;84.10;;;;;;5005598;28;19921;-52
2022/03/30 09:58:29;;;;;;;;;;;10.50;84.20;;;;;;5007031;28;19917;-49
2022/03/30 10:01:02;;;;;;;;;;;10.80;84.00;;;;;;5006520;28;19945;-51
2022/03/30 10:03:37;;;;;;;;;;;11.00;84.80;;;;;;5006505;28;20166;-53
2022/03/30 10:06:03;;;;;;;;;;;11.10;84.60;;;;;;5005041;28;20008;-50
2022/03/30 10:08:29;;;;;;;;;;;11.10;82.80;;;;;;5006343;28;19992;-54
2022/03/30 10:10:54;;;;;;;;;;;11.10;80.00;;;;;;5005990;28;19909;-49
2022/03/30 10:13:20;;;;;;;;;;;11.10;77.60;;;;;;5006083;28;19913;-53
2022/03/30 10:15:46;;;;;;;;;;;11.10;74.00;;;;;;5006257;28;20210;-52
2022/03/30 10:18:11;;;;;;;;;;;10.90;75.90;;;;;;5006323;28;20298;-49
2022/03/30 10:20:36;;;;;;;;;;;11.00;76.50;;;;;;5006211;28;20386;-56
2022/03/30 10:23:13;;;;;;;;;;;11.10;78.10;;;;;;5004752;28;20403;-52
2022/03/30 10:25:39;;;;;;;;;;;11.10;77.50;;;;;;5002234;28;19975;-53
2022/03/30 10:28:21;;;;;;;;;;;11.30;78.60;;;;;;4999980;28;20202;-50
2022/03/30 10:30:50;;;;;;;;;;;11.60;76.80;;;;;;5001255;28;19914;-51
2022/03/30 10:33:27;;;;;;;;;;;11.60;73.10;;;;;;5003911;28;20011;-55
2022/03/30 10:35:53;;;;;;;;;;;11.70;72.90;;;;;;5002313;28;21083;-50
2022/03/30 10:38:18;;;;;;;;;;;11.60;70.60;;;;;;5003438;28;20274;-53
2022/03/30 10:40:44;;;;;;;;;;;11.10;70.40;;;;;;5004534;28;20452;-54
2022/03/30 10:43:10;;;;;;;;;;;10.80;72.30;;;;;;5004489;28;20102;-49
2022/03/30 10:45:51;;;;;;;;;;;10.60;76.20;;;;;;5003345;28;19991;-56
2022/03/30 10:48:18;;;;;;;;;;;10.60;77.40;;;;;;5004852;28;19914;-52
2022/03/30 10:50:48;;;;;;;;;;;10.60;78.40;;;;;;5003596;28;20351;-53
2022/03/30 10:53:29;;;;;;;;;;;10.50;73.80;;;;;;5003106;28;19913;-53
2022/03/30 10:56:15;;;;;;;;;;;10.40;75.70;;;;;;5002242;28;19922;-52
2022/03/30 10:58:49;;;;;;;;;;;10.40;77.00;;;;;;5005279;28;19981;-50
2022/03/30 11:01:18;;;;;;;;;;;10.50;79.00;;;;;;5000518;28;19913;-54
2022/03/30 11:04:03;;;;;;;;;;;10.70;77.90;;;;;;5004157;28;19993;-51
2022/03/30 11:06:34;;;;;;;;;;;10.70;77.00;;;;;;5005083;28;19921;-52
2022/03/30 11:09:01;;;;;;;;;;;10.70;78.30;;;;;;5008307;28;19971;-52
2022/03/30 11:11:30;;;;;;;;;;;10.90;76.70;;;;;;5006248;28;19959;-52
2022/03/30 11:14:14;;;;;;;;;;;11.10;76.20;;;;;;5008440;28;20020;-51
2022/03/30 11:16:49;;;;;;;;;;;11.20;74.50;;;;;;5005598;28;20546;-55
2022/03/30 11:19:15;;;;;;;;;;;11.40;72.80;;;;;;5007966;28;19941;-54
2022/03/30 11:21:51;;;;;;;;;;;11.40;72.10;;;;;;5007581;28;20384;-53
2022/03/30 11:24:22;;;;;;;;;;;11.30;72.20;;;;;;5006747;28;20000;-55
2022/03/30 11:26:48;;;;;;;;;;;11.30;75.50;;;;;;5008401;28;19932;-51
2022/03/30 11:29:32;;;;;;;;;;;11.40;75.80;;;;;;5005516;28;19914;-52
2022/03/30 11:31:57;;;;;;;;;;;11.60;74.10;;;;;;5005245;28;19925;-55
2022/03/30 11:34:36;;;;;;;;;;;11.80;73.70;;;;;;5007371;28;20563;-55
2022/03/30 11:37:01;;;;;;;;;;;11.90;75.30;;;;;;5005309;28;20012;-56
2022/03/30 11:39:37;;;;;;;;;;;12.10;72.50;;;;;;5006235;28;20020;-52
2022/03/30 11:42:02;;;;;;;;;;;12.20;68.80;;;;;;5008054;28;19917;-51
2022/03/30 11:47:16;;;;;;;;;;;12.20;68.90;;;;;;5004103;28;19983;-54
2022/03/30 11:49:48;;;;;;;;;;;12.30;68.80;;;;;;5007047;28;19913;-50
2022/03/30 11:52:14;;;;;;;;;;;12.40;69.70;;;;;;5007850;28;20000;-53
2022/03/30 11:54:47;;;;;;;;;;;12.30;67.10;;;;;;5006480;28;19928;-55
2022/03/30 11:57:13;;;;;;;;;;;12.10;64.60;;;;;;5007021;28;19921;-51
2022/03/30 11:59:39;;;;;;;;;;;11.60;65.40;;;;;;5007351;28;19913;-54
2022/03/30 12:02:04;;;;;;;;;;;11.20;66.50;;;;;;5002688;28;19914;-53
2022/03/30 12:04:30;;;;;;;;;;;10.90;68.00;;;;;;5023615;23;19932;-76
2022/03/30 12:06:56;;;;;;;;;;;10.80;69.20;;;;;;5019903;28;19928;-76
2022/03/30 12:09:21;;;;;;;;;;;10.90;71.60;;;;;;5017258;28;19921;-76
2022/03/30 12:11:47;;;;;;;;;;;11.10;70.20;;;;;;5016060;28;19917;-74
2022/03/30 12:14:12;;;;;;;;;;;11.20;69.80;;;;;;5024926;28;20341;-75
2022/03/30 12:16:38;;;;;;;;;;;11.30;68.90;;;;;;5036543;28;19912;-74
2022/03/30 12:19:04;;;;;;;;;;;11.30;68.20;;;;;;5036838;28;19918;-73
2022/03/30 12:21:34;;;;;;;;;;;11.40;67.90;;;;;;5038294;28;19956;-73
2022/03/30 12:24:02;;;;;;;;;;;11.50;69.60;;;;;;5038866;28;19999;-73
2022/03/30 12:26:28;;;;;;;;;;;11.50;69.00;;;;;;5037006;28;19913;-72
2022/03/30 12:29:07;;;;;;;;;;;11.70;70.30;;;;;;5039585;28;19916;-73
2022/03/30 12:31:40;;;;;;;;;;;12.00;66.50;;;;;;5037541;28;19927;-73
2022/03/30 12:34:09;;;;;;;;;;;11.80;67.60;;;;;;5037545;28;20309;-74
2022/03/30 12:36:39;;;;;;;;;;;11.80;69.50;;;;;;5037310;28;19917;-74
2022/03/30 12:39:14;;;;;;;;;;;11.80;68.40;;;;;;5036684;28;20388;-77
2022/03/30 12:41:39;;;;;;;;;;;11.90;70.00;;;;;;5037716;28;20285;-78
2022/03/30 12:44:05;;;;;;;;;;;12.10;68.60;;;;;;5038577;28;19914;-76
2022/03/30 12:46:33;;;;;;;;;;;11.90;67.40;;;;;;5036333;28;19913;-86
2022/03/30 12:49:03;;;;;;;;;;;11.80;67.00;;;;;;5039398;28;19913;-75
2022/03/30 12:51:30;;;;;;;;;;;11.70;67.70;;;;;;5035143;28;19921;-75
2022/03/30 12:53:55;;;;;;;;;;;11.60;66.40;;;;;;5037682;28;19917;-76
2022/03/30 12:56:23;;;;;;;;;;;11.40;67.00;;;;;;5034008;28;20278;-74
2022/03/30 12:58:49;;;;;;;;;;;11.30;68.10;;;;;;5020932;28;19917;-74
2022/03/30 13:01:26;;;;;;;;;;;11.20;68.50;;;;;;5034440;28;19913;-73
2022/03/30 13:03:53;;;;;;;;;;;11.20;69.00;;;;;;5038913;28;20407;-75
2022/03/30 13:06:20;;;;;;;;;;;11.40;69.30;;;;;;5035075;28;19924;-76
2022/03/30 13:09:01;;;;;;;;;;;11.40;69.90;;;;;;5037659;28;19917;-75
2022/03/30 13:11:26;;;;;;;;;;;11.50;69.60;;;;;;5034368;28;20396;-68
2022/03/30 13:13:52;;;;;;;;;;;11.50;69.00;;;;;;5037882;28;19917;-73
2022/03/30 13:16:18;;;;;;;;;;;11.50;68.70;;;;;;5036069;28;19917;-72
2022/03/30 13:18:58;;;;;;;;;;;11.40;69.10;;;;;;5038648;28;19914;-68
2022/03/30 13:21:24;;;;;;;;;;;11.30;69.00;;;;;;5036523;28;19913;-69
2022/03/30 13:23:50;;;;;;;;;;;11.30;70.20;;;;;;5033723;28;19916;-70
2022/03/30 13:26:33;;;;;;;;;;;11.30;70.10;;;;;;5036154;28;19913;-69
2022/03/30 13:28:59;;;;;;;;;;;11.30;70.40;;;;;;5038859;28;19917;-69
2022/03/30 13:31:25;;;;;;;;;;;11.40;69.80;;;;;;5036038;28;19920;-69
2022/03/30 13:33:52;;;;;;;;;;;11.30;69.70;;;;;;5037483;28;20369;-69
2022/03/30 13:36:17;;;;;;;;;;;11.20;69.80;;;;;;5037105;28;20004;-69
2022/03/30 13:38:47;;;;;;;;;;;11.30;70.50;;;;;;5035466;28;20469;-71
2022/03/30 13:41:14;;;;;;;;;;;11.50;71.60;;;;;;5035077;28;19921;-70
2022/03/30 13:43:40;;;;;;;;;;;11.50;69.70;;;;;;5038663;28;19913;-70
2022/03/30 13:46:05;;;;;;;;;;;11.50;69.70;;;;;;5036865;28;19924;-72
2022/03/30 13:48:31;;;;;;;;;;;11.40;69.70;;;;;;5037049;28;19976;-69
2022/03/30 13:50:59;;;;;;;;;;;11.30;70.40;;;;;;5037682;28;19978;-68
2022/03/30 13:53:25;;;;;;;;;;;11.40;70.80;;;;;;5034777;28;19994;-67
2022/03/30 13:55:51;;;;;;;;;;;11.40;70.60;;;;;;5035062;28;19964;-68
2022/03/30 13:58:16;;;;;;;;;;;11.40;69.80;;;;;;5033614;28;20430;-68
2022/03/30 14:00:42;;;;;;;;;;;11.40;70.50;;;;;;5036090;28;20043;-71
2022/03/30 14:03:07;;;;;;;;;;;11.40;70.20;;;;;;5036436;28;19987;-69
2022/03/30 14:05:34;;;;;;;;;;;11.50;70.80;;;;;;5035090;28;19928;-70
2022/03/30 14:08:01;;;;;;;;;;;11.50;69.80;;;;;;5035834;28;19909;-71
2022/03/30 14:10:26;;;;;;;;;;;11.30;70.10;;;;;;5035181;28;19964;-71
2022/03/30 14:12:52;;;;;;;;;;;11.30;70.30;;;;;;5035982;28;20349;-71
2022/03/30 14:15:18;;;;;;;;;;;11.20;70.30;;;;;;5032177;28;20159;-69
2022/03/30 14:17:47;;;;;;;;;;;11.10;70.90;;;;;;5036495;28;20302;-70
2022/03/30 14:20:13;;;;;;;;;;;11.00;71.30;;;;;;5035225;28;19917;-70
2022/03/30 14:22:39;;;;;;;;;;;10.90;72.20;;;;;;5035835;28;19935;-70
2022/03/30 14:25:05;;;;;;;;;;;10.80;72.80;;;;;;5034762;28;20009;-69
2022/03/30 14:27:31;;;;;;;;;;;10.70;74.40;;;;;;5036619;28;20369;-70
2022/03/30 14:29:57;;;;;;;;;;;10.70;74.70;;;;;;5033982;28;19913;-68
2022/03/30 14:32:23;;;;;;;;;;;10.60;77.30;;;;;;5032401;28;20286;-68
2022/03/30 14:34:50;;;;;;;;;;;10.40;81.30;;;;;;5037719;28;19928;-69